Time;durP1;ratioP1;P1;durP2;ratioP2;P2;SDS_P1;SDS_P2;PMS_P1;PMS_P2;Temp;Humidity;BMP_temperature;BMP_pressure;BME280_temperature;BME280_humidity;BME280_pressure;Samples;Min_cycle;Max_cycle;Signal;HPM_P1;HPM_P2
2021/09/08 00:01:17;;;;;;;0.75;0.75;;;14.30;99.90;;;;;;5091583;28;20179;-76
2021/09/08 00:03:43;;;;;;;0.50;0.50;;;14.30;99.90;;;;;;5091636;28;20239;-75
2021/09/08 00:06:09;;;;;;;5.47;1.67;;;14.30;99.90;;;;;;5091279;28;20171;-76
2021/09/08 00:08:35;;;;;;;1.80;1.67;;;14.30;99.90;;;;;;5109473;28;20258;-75
2021/09/08 00:11:01;;;;;;;1.13;1.13;;;14.30;99.90;;;;;;5109565;28;20167;-74
2021/09/08 00:13:29;;;;;;;0.43;0.43;;;14.20;99.90;;;;;;5091261;28;20171;-76
2021/09/08 00:15:56;;;;;;;3.45;1.20;;;14.20;99.90;;;;;;5109339;28;20156;-75
2021/09/08 00:18:22;;;;;;;0.77;0.77;;;14.10;99.90;;;;;;5091201;28;20759;-76
2021/09/08 00:20:48;;;;;;;0.85;0.68;;;14.10;99.90;;;;;;5109333;28;20155;-76
2021/09/08 00:23:14;;;;;;;0.45;0.45;;;14.20;99.90;;;;;;5091114;28;20204;-75
2021/09/08 00:25:40;;;;;;;1.25;0.73;;;14.20;99.90;;;;;;5109380;28;20163;-76
2021/09/08 00:28:06;;;;;;;0.65;0.65;;;14.10;99.90;;;;;;5109048;28;20218;-75
2021/09/08 00:30:33;;;;;;;0.95;0.68;;;13.90;99.90;;;;;;5090834;28;20187;-75
2021/09/08 00:32:59;;;;;;;1.55;1.45;;;14.00;99.90;;;;;;5110496;28;20162;-75
2021/09/08 00:35:25;;;;;;;1.45;0.73;;;14.30;99.90;;;;;;5110939;28;20170;-75
2021/09/08 00:37:51;;;;;;;1.08;0.77;;;14.50;99.90;;;;;;5129291;28;20217;-75
2021/09/08 00:40:17;;;;;;;0.63;0.63;;;14.60;99.90;;;;;;5110960;28;20623;-75
2021/09/08 00:42:44;;;;;;;0.90;0.88;;;14.60;99.90;;;;;;5129619;28;20159;-76
2021/09/08 00:45:13;;;;;;;0.93;0.93;;;14.80;99.90;;;;;;5129320;28;20155;-75
2021/09/08 00:47:39;;;;;;;0.82;0.82;;;14.60;99.90;;;;;;5129316;28;20218;-77
2021/09/08 00:50:05;;;;;;;0.65;0.65;;;14.50;99.90;;;;;;5129395;28;20163;-76
2021/09/08 00:52:31;;;;;;;2.83;0.70;;;14.50;99.90;;;;;;5110802;28;20181;-76
2021/09/08 00:54:58;;;;;;;1.13;0.38;;;14.60;99.90;;;;;;5111178;28;20211;-76
2021/09/08 00:57:26;;;;;;;0.60;0.60;;;14.60;99.90;;;;;;5108529;28;20221;-76
2021/09/08 00:59:52;;;;;;;0.82;0.82;;;14.70;99.90;;;;;;5108771;28;20217;-76
2021/09/08 01:02:18;;;;;;;0.70;0.70;;;14.60;99.90;;;;;;5090307;28;20167;-76
2021/09/08 01:04:45;;;;;;;1.05;0.93;;;14.20;99.90;;;;;;5108480;28;20243;-76
2021/09/08 01:07:11;;;;;;;2.90;1.10;;;13.60;99.90;;;;;;5089320;28;20282;-76
2021/09/08 01:09:38;;;;;;;0.25;0.25;;;13.30;99.90;;;;;;5106719;28;20179;-76
2021/09/08 01:12:04;;;;;;;0.55;0.55;;;13.20;99.90;;;;;;5108342;28;20152;-76
2021/09/08 01:14:30;;;;;;;2.17;1.58;;;13.30;99.90;;;;;;5090157;28;20191;-76
2021/09/08 01:16:57;;;;;;;0.70;0.70;;;13.30;99.90;;;;;;5108655;28;20166;-76
2021/09/08 01:19:24;;;;;;;1.15;0.98;;;13.50;99.90;;;;;;5090403;28;20175;-75
2021/09/08 01:21:50;;;;;;;0.10;0.10;;;13.40;99.90;;;;;;5108775;28;20611;-76
2021/09/08 01:24:16;;;;;;;0.63;0.63;;;13.40;99.90;;;;;;5108643;28;20194;-76
2021/09/08 01:26:45;;;;;;;2.20;1.05;;;13.60;99.90;;;;;;5090318;28;20171;-76
2021/09/08 01:29:11;;;;;;;0.63;0.40;;;13.90;99.90;;;;;;5090055;28;20241;-76
2021/09/08 01:31:37;;;;;;;1.50;1.00;;;14.00;99.90;;;;;;5108538;28;20159;-76
2021/09/08 01:34:05;;;;;;;5.35;0.73;;;13.80;99.90;;;;;;5108417;28;20187;-76
2021/09/08 01:36:41;;;;;;;0.73;0.73;;;13.50;99.90;;;;;;5090166;28;20225;-76
2021/09/08 01:39:07;;;;;;;0.40;0.40;;;13.40;99.90;;;;;;5089970;28;20171;-76
2021/09/08 01:41:35;;;;;;;0.88;0.88;;;13.50;99.90;;;;;;5090114;28;20167;-76
2021/09/08 01:44:02;;;;;;;0.98;0.68;;;13.60;99.90;;;;;;5089820;28;20202;-76
2021/09/08 01:46:28;;;;;;;2.30;0.88;;;13.40;99.90;;;;;;5108053;28;20167;-75
2021/09/08 01:48:54;;;;;;;0.38;0.30;;;13.20;99.90;;;;;;5089739;28;20221;-76
2021/09/08 01:51:20;;;;;;;0.85;0.85;;;13.20;99.90;;;;;;5108264;28;20151;-76
2021/09/08 01:53:47;;;;;;;0.43;0.43;;;13.20;99.90;;;;;;5089977;28;20219;-76
2021/09/08 01:56:13;;;;;;;3.40;1.10;;;13.30;99.90;;;;;;5107582;28;20159;-76
2021/09/08 01:58:39;;;;;;;0.60;0.60;;;13.40;99.90;;;;;;5110521;28;20174;-76
2021/09/08 02:01:05;;;;;;;0.88;0.88;;;13.80;99.90;;;;;;5093639;28;20171;-76
2021/09/08 02:03:30;;;;;;;1.60;1.55;;;14.00;99.90;;;;;;5111734;28;20199;-76
2021/09/08 02:05:56;;;;;;;2.30;2.10;;;14.10;99.90;;;;;;5093550;28;20174;-76
2021/09/08 02:08:23;;;;;;;1.38;1.27;;;14.20;99.90;;;;;;5111825;28;20187;-76
2021/09/08 02:10:49;;;;;;;1.10;0.95;;;14.00;99.90;;;;;;5111880;28;20215;-76
2021/09/08 02:13:14;;;;;;;0.50;0.50;;;14.20;99.90;;;;;;5093634;28;20167;-76
2021/09/08 02:15:40;;;;;;;2.60;1.30;;;14.10;99.90;;;;;;5111735;28;20151;-76
2021/09/08 02:18:06;;;;;;;0.63;0.63;;;14.00;99.90;;;;;;5093529;28;20172;-75
2021/09/08 02:20:32;;;;;;;9.27;1.13;;;13.70;99.90;;;;;;5111720;28;20159;-75
2021/09/08 02:22:58;;;;;;;1.60;1.50;;;13.40;99.90;;;;;;5093436;28;20163;-75
2021/09/08 02:25:24;;;;;;;1.25;1.15;;;13.40;99.90;;;;;;5093407;28;20579;-75
2021/09/08 02:27:50;;;;;;;3.40;1.55;;;13.00;99.90;;;;;;5111644;28;20664;-75
2021/09/08 02:30:16;;;;;;;0.65;0.65;;;12.90;99.90;;;;;;5111512;28;20162;-75
2021/09/08 02:32:43;;;;;;;5.25;1.92;;;13.00;99.90;;;;;;5093108;28;20262;-75
2021/09/08 02:35:10;;;;;;;1.63;1.52;;;13.20;99.90;;;;;;5111239;28;20191;-76
2021/09/08 02:37:36;;;;;;;2.15;0.88;;;13.20;99.90;;;;;;5095797;28;20195;-76
2021/09/08 02:40:02;;;;;;;0.38;0.38;;;13.00;99.90;;;;;;5073122;28;20232;-74
2021/09/08 02:42:28;;;;;;;1.88;1.67;;;12.90;99.90;;;;;;5092036;28;20560;-77
2021/09/08 02:44:54;;;;;;;0.65;0.50;;;12.90;99.90;;;;;;5073284;28;20214;-76
2021/09/08 02:47:20;;;;;;;1.52;1.42;;;12.90;99.90;;;;;;5073046;28;20249;-76
2021/09/08 02:49:46;;;;;;;1.55;1.45;;;12.90;99.90;;;;;;5091441;28;20188;-76
2021/09/08 02:52:11;;;;;;;0.45;0.45;;;12.80;99.90;;;;;;5091134;28;20164;-75
2021/09/08 02:54:37;;;;;;;1.00;0.98;;;12.60;99.90;;;;;;5087721;28;20628;-76
2021/09/08 02:57:03;;;;;;;1.27;1.27;;;12.60;99.90;;;;;;5111323;28;20183;-75
2021/09/08 02:59:29;;;;;;;1.27;1.23;;;12.60;99.90;;;;;;5111622;28;20162;-77
2021/09/08 03:01:55;;;;;;;1.33;1.23;;;12.60;99.90;;;;;;5111389;28;20158;-74
2021/09/08 03:04:21;;;;;;;0.45;0.45;;;12.60;99.90;;;;;;5111359;28;20163;-74
2021/09/08 03:06:49;;;;;;;0.90;0.90;;;12.60;99.90;;;;;;5092716;28;20191;-75
2021/09/08 03:09:16;;;;;;;2.00;1.90;;;12.50;99.90;;;;;;5111243;28;20183;-75
2021/09/08 03:11:42;;;;;;;1.15;1.13;;;12.50;99.90;;;;;;5111038;28;20169;-76
2021/09/08 03:14:09;;;;;;;1.98;1.38;;;12.40;99.90;;;;;;5092586;28;20194;-76
2021/09/08 03:16:35;;;;;;;1.42;0.55;;;12.40;99.90;;;;;;5111145;28;20251;-75
2021/09/08 03:19:01;;;;;;;0.47;0.47;;;12.40;99.90;;;;;;5092614;28;20220;-75
2021/09/08 03:21:27;;;;;;;2.35;1.23;;;12.70;99.90;;;;;;5092569;28;20171;-77
2021/09/08 03:23:53;;;;;;;1.55;1.45;;;12.70;99.90;;;;;;5092604;28;20178;-76
2021/09/08 03:26:19;;;;;;;1.35;1.20;;;12.60;99.90;;;;;;5110611;28;20247;-76
2021/09/08 03:28:44;;;;;;;0.20;0.20;;;12.60;99.90;;;;;;5092325;28;20214;-76
2021/09/08 03:31:11;;;;;;;2.38;1.00;;;12.80;99.90;;;;;;5110504;28;20147;-76
2021/09/08 03:33:37;;;;;;;2.08;1.27;;;13.20;99.90;;;;;;5110472;28;20158;-76
2021/09/08 03:36:03;;;;;;;1.15;1.15;;;13.30;99.90;;;;;;5110382;28;20171;-76
2021/09/08 03:38:29;;;;;;;1.15;1.10;;;13.40;99.90;;;;;;5110474;28;20243;-77
2021/09/08 03:40:55;;;;;;;2.47;2.00;;;13.60;99.90;;;;;;5092223;28;20175;-76
2021/09/08 03:43:21;;;;;;;1.65;1.55;;;13.40;99.90;;;;;;5110359;28;20336;-76
2021/09/08 03:45:46;;;;;;;0.75;0.75;;;13.50;99.90;;;;;;5110378;28;20185;-76
2021/09/08 03:48:12;;;;;;;0.55;0.55;;;13.40;99.90;;;;;;5109989;28;20199;-76
2021/09/08 03:50:38;;;;;;;4.03;0.60;;;13.50;99.90;;;;;;5110461;28;20182;-76
2021/09/08 03:53:05;;;;;;;1.55;1.45;;;13.40;99.90;;;;;;5108190;28;20245;-75
2021/09/08 03:55:31;;;;;;;0.43;0.43;;;13.50;99.90;;;;;;5071974;28;20172;-75
2021/09/08 03:57:57;;;;;;;3.60;2.30;;;13.50;99.90;;;;;;5089577;28;20251;-76
2021/09/08 04:00:22;;;;;;;1.13;1.10;;;13.30;99.90;;;;;;5090086;28;20168;-77
2021/09/08 04:02:48;;;;;;;1.45;1.35;;;13.20;99.90;;;;;;5090640;28;20160;-76
2021/09/08 04:05:14;;;;;;;1.35;1.30;;;13.30;99.90;;;;;;5090700;28;20152;-75
2021/09/08 04:07:41;;;;;;;1.75;1.65;;;13.40;99.90;;;;;;5089791;28;20247;-75
2021/09/08 04:10:07;;;;;;;1.05;1.05;;;13.20;99.90;;;;;;5089290;28;20168;-75
2021/09/08 04:12:33;;;;;;;1.20;1.02;;;13.20;99.90;;;;;;5089354;28;20160;-76
2021/09/08 04:14:59;;;;;;;0.25;0.25;;;13.10;99.90;;;;;;5071320;28;20210;-76
2021/09/08 04:17:24;;;;;;;1.20;1.05;;;12.80;99.90;;;;;;5071170;28;20200;-76
2021/09/08 04:19:50;;;;;;;0.10;0.10;;;12.70;99.90;;;;;;5088979;28;20220;-75
2021/09/08 04:22:17;;;;;;;3.38;1.52;;;12.80;99.90;;;;;;5071083;28;20164;-75
2021/09/08 04:24:42;;;;;;;1.15;1.15;;;12.70;99.90;;;;;;5089237;28;20498;-75
2021/09/08 04:27:08;;;;;;;0.60;0.60;;;12.50;99.90;;;;;;5071243;28;20191;-76
2021/09/08 04:29:34;;;;;;;1.67;1.50;;;12.20;99.90;;;;;;5071120;28;20662;-76
2021/09/08 04:32:00;;;;;;;0.80;0.80;;;12.10;99.90;;;;;;5089000;28;20274;-76
2021/09/08 04:34:26;;;;;;;0.85;0.85;;;12.10;99.90;;;;;;5088851;28;20529;-76
2021/09/08 04:36:52;;;;;;;0.77;0.77;;;12.30;99.90;;;;;;5088977;28;20330;-76
2021/09/08 04:39:18;;;;;;;1.45;0.65;;;12.60;99.90;;;;;;5070844;28;20188;-76
2021/09/08 04:41:44;;;;;;;0.77;0.77;;;12.90;99.90;;;;;;5089390;28;20222;-75
2021/09/08 04:44:10;;;;;;;24.00;2.85;;;12.90;99.90;;;;;;5070600;28;20198;-75
2021/09/08 04:46:35;;;;;;;1.38;1.27;;;12.50;99.90;;;;;;5070646;28;20226;-75
2021/09/08 04:49:01;;;;;;;0.63;0.60;;;12.90;99.90;;;;;;5070477;28;20199;-74
2021/09/08 04:51:27;;;;;;;1.65;1.25;;;13.20;99.90;;;;;;5070420;28;20224;-75
2021/09/08 04:53:53;;;;;;;1.63;1.52;;;13.30;99.90;;;;;;5097002;28;20235;-75
2021/09/08 04:56:19;;;;;;;2.67;2.05;;;13.10;99.90;;;;;;5090449;28;20199;-75
2021/09/08 04:58:45;;;;;;;0.93;0.93;;;12.90;99.90;;;;;;5090121;28;20550;-75
2021/09/08 05:01:11;;;;;;;1.15;1.08;;;12.90;99.90;;;;;;5108551;28;20168;-75
2021/09/08 05:03:37;;;;;;;4.03;2.25;;;13.30;99.90;;;;;;5090563;28;20220;-74
2021/09/08 05:06:03;;;;;;;0.88;0.88;;;13.20;99.90;;;;;;5108677;28;20155;-75
2021/09/08 05:08:28;;;;;;;1.17;1.17;;;13.00;99.90;;;;;;5108589;28;20199;-74
2021/09/08 05:10:54;;;;;;;3.47;1.23;;;13.10;99.90;;;;;;5129027;28;20182;-75
2021/09/08 05:13:21;;;;;;;0.85;0.85;;;13.60;99.90;;;;;;5110462;28;20167;-74
2021/09/08 05:15:46;;;;;;;1.10;1.10;;;14.00;99.90;;;;;;5129028;28;20161;-75
2021/09/08 05:18:12;;;;;;;2.35;1.75;;;14.70;99.90;;;;;;5128873;28;20217;-75
2021/09/08 05:20:38;;;;;;;1.50;1.40;;;15.30;99.90;;;;;;5110670;28;20170;-75
2021/09/08 05:23:04;;;;;;;0.43;0.43;;;15.90;99.90;;;;;;5110705;28;20182;-75
2021/09/08 05:25:30;;;;;;;1.02;0.88;;;16.20;99.90;;;;;;5128984;28;20161;-76
2021/09/08 05:27:56;;;;;;;1.20;1.10;;;16.30;99.90;;;;;;5128851;28;20236;-76
2021/09/08 05:30:22;;;;;;;1.65;1.55;;;16.60;99.90;;;;;;5128894;28;20150;-75
2021/09/08 05:32:48;;;;;;;1.85;1.48;;;16.70;99.90;;;;;;5128270;28;20180;-76
2021/09/08 05:35:14;;;;;;;1.27;1.27;;;17.10;99.90;;;;;;5128695;28;20162;-76
2021/09/08 05:37:41;;;;;;;1.92;1.35;;;17.40;99.90;;;;;;5110162;28;20209;-76
2021/09/08 05:40:11;;;;;;;1.23;1.08;;;17.60;99.90;;;;;;5110426;28;20158;-75
2021/09/08 05:42:38;;;;;;;1.23;1.17;;;17.70;99.90;;;;;;5110423;28;20166;-75
2021/09/08 05:45:04;;;;;;;1.55;1.15;;;17.80;99.90;;;;;;5110285;28;20170;-76
2021/09/08 05:47:30;;;;;;;1.70;1.05;;;18.00;99.90;;;;;;5128596;28;20251;-74
2021/09/08 05:49:56;;;;;;;1.83;1.42;;;17.80;99.90;;;;;;5110309;28;20205;-75
2021/09/08 05:52:22;;;;;;;2.35;1.58;;;18.20;99.90;;;;;;5128688;28;20155;-75
2021/09/08 05:54:48;;;;;;;1.67;1.58;;;18.20;99.90;;;;;;5109845;28;20293;-75
2021/09/08 05:57:13;;;;;;;4.35;2.22;;;18.40;99.90;;;;;;5128441;28;20186;-75
2021/09/08 05:59:39;;;;;;;3.28;2.60;;;18.20;99.90;;;;;;5110214;28;20167;-76
2021/09/08 06:02:05;;;;;;;1.92;1.73;;;18.20;99.90;;;;;;5110043;28;20196;-75
2021/09/08 06:04:31;;;;;;;1.50;1.35;;;18.20;99.90;;;;;;5110324;28;20177;-76
2021/09/08 06:06:58;;;;;;;2.40;1.75;;;18.50;99.90;;;;;;5128404;28;20194;-76
2021/09/08 06:09:24;;;;;;;4.65;1.45;;;18.10;99.90;;;;;;5110065;28;20258;-75
2021/09/08 06:11:54;;;;;;;1.45;1.35;;;17.50;99.90;;;;;;5128456;28;20161;-75
2021/09/08 06:14:20;;;;;;;2.40;1.33;;;17.80;99.90;;;;;;5110048;28;20170;-75
2021/09/08 06:16:46;;;;;;;1.60;1.50;;;17.30;99.90;;;;;;5109759;28;20258;-75
2021/09/08 06:19:12;;;;;;;1.67;1.58;;;17.60;99.90;;;;;;5128352;28;20155;-76
2021/09/08 06:21:38;;;;;;;1.20;1.10;;;17.10;99.90;;;;;;5110085;28;20171;-75
2021/09/08 06:24:04;;;;;;;1.45;1.35;;;16.90;99.90;;;;;;5127349;28;20182;-74
2021/09/08 06:26:30;;;;;;;1.92;0.98;;;16.60;99.90;;;;;;5085329;28;20203;-75
2021/09/08 06:28:56;;;;;;;1.42;1.25;;;16.60;99.90;;;;;;5088033;28;20192;-75
2021/09/08 06:31:22;;;;;;;1.50;1.30;;;16.10;99.90;;;;;;5104932;28;20244;-75
2021/09/08 06:33:50;;;;;;;1.73;1.63;;;16.20;99.90;;;;;;5107801;28;20274;-75
2021/09/08 06:36:17;;;;;;;3.20;1.38;;;16.50;99.90;;;;;;5089083;28;20198;-75
2021/09/08 06:38:43;;;;;;;1.35;1.25;;;17.20;99.90;;;;;;5107727;28;20182;-75
2021/09/08 06:41:09;;;;;;;1.60;1.42;;;18.40;99.90;;;;;;5105016;28;20225;-74
2021/09/08 06:43:35;;;;;;;2.55;1.38;;;18.70;99.90;;;;;;5087187;28;20171;-74
2021/09/08 06:46:02;;;;;;;1.38;1.27;;;18.90;99.90;;;;;;5108662;28;20167;-75
2021/09/08 06:48:28;;;;;;;1.52;1.50;;;19.00;99.90;;;;;;5090623;28;20191;-76
2021/09/08 06:50:53;;;;;;;1.05;0.95;;;19.40;99.90;;;;;;5090536;28;20221;-75
2021/09/08 06:53:19;;;;;;;1.10;1.02;;;19.90;99.90;;;;;;5108698;28;20217;-75
2021/09/08 06:55:45;;;;;;;2.50;1.90;;;20.60;99.90;;;;;;5108847;28;20170;-75
2021/09/08 06:58:11;;;;;;;0.95;0.95;;;20.80;99.90;;;;;;5111239;28;20163;-75
2021/09/08 07:00:37;;;;;;;1.85;1.63;;;22.10;99.90;;;;;;5110951;28;20671;-75
2021/09/08 07:03:03;;;;;;;7.90;2.70;;;22.90;99.90;;;;;;5092818;28;20175;-75
2021/09/08 07:05:29;;;;;;;2.05;1.73;;;22.30;99.90;;;;;;5111029;28;20225;-75
2021/09/08 07:07:55;;;;;;;0.80;0.80;;;22.30;99.90;;;;;;5110826;28;20201;-74
2021/09/08 07:10:21;;;;;;;3.15;2.03;;;21.30;99.90;;;;;;5092533;28;20198;-74
2021/09/08 07:12:47;;;;;;;7.22;1.63;;;20.40;99.90;;;;;;5110859;28;20184;-74
2021/09/08 07:15:13;;;;;;;23.15;3.08;;;21.00;99.90;;;;;;5110658;28;20187;-74
2021/09/08 07:17:39;;;;;;;3.92;1.65;;;20.90;99.90;;;;;;5110706;28;20269;-74
2021/09/08 07:20:06;;;;;;;1.23;1.13;;;20.30;99.90;;;;;;5092390;28;20608;-74
2021/09/08 07:22:32;;;;;;;1.30;1.20;;;20.60;99.90;;;;;;5092244;28;20170;-75
2021/09/08 07:24:58;;;;;;;5.55;2.92;;;21.90;99.90;;;;;;5109961;28;20193;-75
2021/09/08 07:27:24;;;;;;;0.73;0.73;;;21.60;99.90;;;;;;5092129;28;20262;-75
2021/09/08 07:29:50;;;;;;;0.80;0.80;;;21.40;99.90;;;;;;5091948;28;20210;-75
2021/09/08 07:32:16;;;;;;;1.25;1.08;;;22.20;99.90;;;;;;5110325;28;20190;-75
2021/09/08 07:34:42;;;;;;;1.42;1.30;;;22.50;99.90;;;;;;5092203;28;20322;-74
2021/09/08 07:37:08;;;;;;;3.10;1.55;;;23.70;99.90;;;;;;5110375;28;20159;-74
2021/09/08 07:39:34;;;;;;;2.25;1.40;;;23.90;99.90;;;;;;5091304;28;20378;-76
2021/09/08 07:42:02;;;;;;;1.48;1.17;;;24.20;99.90;;;;;;5095891;28;20476;-76
2021/09/08 07:44:28;;;;;;;0.85;0.85;;;24.50;99.90;;;;;;5114785;28;20189;-77
2021/09/08 07:46:56;;;;;;;1.35;1.35;;;25.80;99.90;;;;;;5091568;28;20166;-75
2021/09/08 07:49:22;;;;;;;3.08;2.78;;;25.40;99.90;;;;;;5119944;28;20216;-74
2021/09/08 07:51:48;;;;;;;1.02;0.90;;;25.30;99.90;;;;;;5130359;28;20245;-74
2021/09/08 07:54:14;;;;;;;2.05;1.58;;;24.70;99.90;;;;;;5115704;28;20257;-74
2021/09/08 07:56:40;;;;;;;2.40;1.60;;;24.60;99.90;;;;;;5091442;28;20175;-76
2021/09/08 07:59:06;;;;;;;1.38;1.27;;;22.90;99.90;;;;;;5089521;28;20151;-74
2021/09/08 08:01:33;;;;;;;1.75;1.48;;;21.80;99.90;;;;;;5070613;28;20202;-76
2021/09/08 08:04:00;;;;;;;2.25;1.48;;;22.70;99.90;;;;;;5086940;28;20270;-76
2021/09/08 08:06:26;;;;;;;0.95;0.77;;;23.60;99.90;;;;;;5081053;28;20177;-73
2021/09/08 08:08:52;;;;;;;2.30;2.10;;;24.70;99.90;;;;;;5085351;28;20301;-73
2021/09/08 08:11:18;;;;;;;0.88;0.88;;;25.50;99.90;;;;;;5109525;28;20166;-73
2021/09/08 08:13:47;;;;;;;1.50;1.40;;;25.60;99.90;;;;;;5109326;28;20155;-73
2021/09/08 08:16:16;;;;;;;0.77;0.77;;;25.70;99.90;;;;;;5117866;28;20181;-74
2021/09/08 08:18:42;;;;;;;2.78;1.55;;;25.00;99.90;;;;;;5111113;28;20176;-74
2021/09/08 08:21:08;;;;;;;6.07;1.65;;;25.20;99.90;;;;;;5129483;28;20188;-74
2021/09/08 08:23:34;;;;;;;2.90;2.05;;;25.90;99.90;;;;;;5111186;28;20215;-74
2021/09/08 08:26:01;;;;;;;1.05;0.75;;;25.60;99.90;;;;;;5114514;28;20194;-73
2021/09/08 08:28:27;;;;;;;1.20;1.05;;;25.10;99.90;;;;;;5110861;28;20272;-74
2021/09/08 08:30:54;;;;;;;1.38;1.02;;;25.80;99.90;;;;;;5115263;28;20197;-74
2021/09/08 08:33:20;;;;;;;3.13;1.23;;;26.30;99.90;;;;;;5105249;28;20215;-74
2021/09/08 08:35:46;;;;;;;2.58;1.77;;;26.70;99.90;;;;;;5106038;28;20612;-74
2021/09/08 08:38:12;;;;;;;3.42;2.88;;;26.40;99.90;;;;;;5091242;28;20194;-76
2021/09/08 08:40:37;;;;;;;1.67;1.58;;;26.90;99.90;;;;;;5116368;28;20269;-74
2021/09/08 08:43:04;;;;;;;2.45;1.38;;;26.70;99.90;;;;;;5109921;28;20199;-74
2021/09/08 08:45:30;;;;;;;0.80;0.77;;;27.40;99.90;;;;;;5107416;28;20285;-73
2021/09/08 08:48:00;;;;;;;1.13;1.13;;;27.60;99.90;;;;;;5119827;28;20194;-73
2021/09/08 08:50:26;;;;;;;2.45;1.05;;;27.30;98.40;;;;;;5108233;28;20307;-73
2021/09/08 08:52:53;;;;;;;2.72;1.85;;;26.60;99.90;;;;;;5104829;28;20595;-75
2021/09/08 08:55:19;;;;;;;1.35;1.23;;;27.30;99.50;;;;;;5099522;28;20213;-74
2021/09/08 08:57:50;;;;;;;0.82;0.82;;;27.40;99.10;;;;;;5097721;28;20218;-74
2021/09/08 09:00:20;;;;;;;1.35;1.20;;;26.30;99.90;;;;;;5107764;28;20689;-74
2021/09/08 09:02:48;;;;;;;3.17;2.08;;;27.60;98.80;;;;;;5113439;28;20193;-74
2021/09/08 09:05:34;;;;;;;10.70;1.00;;;28.10;97.30;;;;;;5114833;28;20350;-74
2021/09/08 09:08:02;;;;;;;3.13;1.17;;;28.10;97.70;;;;;;5101323;28;20209;-74
2021/09/08 09:10:29;;;;;;;1.52;1.08;;;27.70;99.90;;;;;;5088803;28;20198;-74
2021/09/08 09:12:55;;;;;;;1.55;0.93;;;27.60;98.30;;;;;;5103401;28;20208;-81
2021/09/08 09:15:23;;;;;;;2.67;0.90;;;26.60;99.90;;;;;;5106895;28;20256;-79
2021/09/08 09:17:50;;;;;;;0.30;0.30;;;26.80;98.80;;;;;;5112920;28;20186;-76
2021/09/08 09:20:23;;;;;;;1.23;1.13;;;26.10;99.90;;;;;;5122783;28;20197;-75
2021/09/08 09:23:00;;;;;;;0.80;0.80;;;25.30;99.90;;;;;;5089580;28;20178;-76
2021/09/08 09:25:28;;;;;;;0.85;0.85;;;25.40;99.90;;;;;;5114572;28;20194;-80
2021/09/08 09:27:59;;;;;;;2.50;1.45;;;25.60;99.50;;;;;;5116866;28;20166;-75
2021/09/08 09:30:28;;;;;;;6.15;2.08;;;25.50;99.90;;;;;;5107858;28;20195;-75
2021/09/08 09:32:55;;;;;;;1.65;1.52;;;25.30;99.90;;;;;;5110683;28;20171;-74
2021/09/08 09:35:24;;;;;;;1.40;1.30;;;25.90;99.90;;;;;;5113863;28;20191;-75
2021/09/08 09:37:53;;;;;;;1.00;0.95;;;25.80;99.90;;;;;;5100551;28;20651;-74
2021/09/08 09:40:27;;;;;;;1.05;0.93;;;25.60;99.90;;;;;;5089130;28;20274;-75
2021/09/08 09:42:54;;;;;;;0.80;0.80;;;25.10;99.40;;;;;;5118749;28;20232;-76
2021/09/08 09:45:21;;;;;;;1.08;0.98;;;25.00;99.90;;;;;;5089599;28;20178;-77
2021/09/08 09:47:49;;;;;;;0.95;0.80;;;25.10;98.30;;;;;;5123428;28;20497;-75
2021/09/08 09:50:19;;;;;;;1.38;1.27;;;24.40;98.00;;;;;;5120078;28;20758;-74
2021/09/08 09:52:46;;;;;;;10.02;2.63;;;23.70;99.90;;;;;;5107949;28;20190;-79
2021/09/08 09:55:13;;;;;;;2.97;1.38;;;24.50;99.90;;;;;;5084496;28;20211;-73
2021/09/08 09:57:42;;;;;;;1.08;0.60;;;24.90;98.30;;;;;;5090108;28;20199;-74
2021/09/08 10:00:08;;;;;;;2.30;1.00;;;24.70;99.10;;;;;;5093544;28;20244;-75
2021/09/08 10:02:34;;;;;;;1.33;0.47;;;24.70;98.90;;;;;;5088320;28;20261;-74
2021/09/08 10:05:02;;;;;;;1.63;1.40;;;24.40;99.20;;;;;;5076513;28;20248;-73
2021/09/08 10:07:28;;;;;;;1.10;0.75;;;24.80;98.80;;;;;;5071318;28;20214;-72
2021/09/08 10:10:16;;;;;;;0.47;0.47;;;24.10;98.80;;;;;;5071851;28;20210;-74
2021/09/08 10:13:06;;;;;;;2.03;1.23;;;24.10;98.60;;;;;;5061645;28;20214;-75
2021/09/08 10:15:33;;;;;;;0.57;0.57;;;24.00;98.70;;;;;;5080330;28;20202;-73
2021/09/08 10:18:07;;;;;;;0.13;0.13;;;24.30;98.10;;;;;;5069572;28;20194;-75
2021/09/08 10:20:34;;;;;;;0.75;0.75;;;25.10;98.60;;;;;;5059749;28;20171;-73
2021/09/08 10:23:11;;;;;;;1.50;1.20;;;25.00;96.80;;;;;;5092936;28;20190;-73
2021/09/08 10:25:44;;;;;;;0.93;0.88;;;24.50;98.00;;;;;;5099818;28;20162;-73
2021/09/08 10:28:15;;;;;;;0.40;0.40;;;25.40;97.40;;;;;;5095309;28;20217;-75
2021/09/08 10:30:43;;;;;;;1.05;0.60;;;25.80;95.10;;;;;;5073749;28;20198;-75
2021/09/08 10:33:09;;;;;;;2.05;1.50;;;25.70;96.70;;;;;;5107221;28;20262;-72
2021/09/08 10:35:39;;;;;;;2.17;1.42;;;25.70;95.90;;;;;;5108281;28;20191;-74
2021/09/08 10:38:14;;;;;;;1.13;0.50;;;25.60;95.20;;;;;;5104805;28;20205;-73
2021/09/08 10:40:42;;;;;;;2.17;0.52;;;26.20;95.50;;;;;;5068404;28;20259;-74
2021/09/08 10:43:09;;;;;;;0.88;0.88;;;26.50;94.50;;;;;;5093979;28;20214;-75
2021/09/08 10:45:47;;;;;;;1.40;0.50;;;26.20;94.00;;;;;;5081472;28;20268;-73
2021/09/08 10:48:32;;;;;;;1.23;0.98;;;24.80;94.90;;;;;;5092989;28;20214;-73
2021/09/08 10:50:58;;;;;;;6.50;1.27;;;23.30;97.10;;;;;;5090699;28;20156;-73
2021/09/08 10:53:32;;;;;;;1.42;0.43;;;23.50;95.90;;;;;;5088586;28;20306;-73
2021/09/08 10:55:58;;;;;;;0.73;0.70;;;23.80;96.00;;;;;;5090045;28;20573;-73
2021/09/08 10:58:55;;;;;;;0.50;0.50;;;25.80;93.10;;;;;;5072759;28;20445;-74
2021/09/08 11:01:21;;;;;;;0.85;0.85;;;26.10;92.90;;;;;;5072927;28;20187;-73
2021/09/08 11:03:49;;;;;;;0.63;0.63;;;26.50;92.60;;;;;;5072589;28;20198;-72
2021/09/08 11:06:15;;;;;;;0.65;0.63;;;26.80;94.20;;;;;;5090816;28;20170;-72
2021/09/08 11:08:43;;;;;;;1.70;1.25;;;27.30;94.70;;;;;;5090444;28;20203;-73
2021/09/08 11:11:19;;;;;;;0.30;0.25;;;27.40;92.90;;;;;;5090567;28;20171;-73
2021/09/08 11:13:53;;;;;;;0.70;0.38;;;27.20;94.70;;;;;;5090454;28;20160;-73
2021/09/08 11:16:29;;;;;;;0.50;0.47;;;27.70;92.50;;;;;;5090861;28;20166;-73
2021/09/08 11:18:58;;;;;;;1.55;1.08;;;25.30;94.40;;;;;;5072330;28;20203;-73
2021/09/08 11:21:29;;;;;;;1.75;1.17;;;25.70;97.10;;;;;;5072330;28;20163;-73
2021/09/08 11:24:09;;;;;;;2.80;0.93;;;25.30;95.20;;;;;;5072607;28;20223;-74
2021/09/08 11:26:37;;;;;;;0.65;0.60;;;24.40;95.80;;;;;;5090420;28;20159;-73
2021/09/08 11:29:10;;;;;;;0.63;0.63;;;23.80;96.40;;;;;;5072216;28;20301;-73
2021/09/08 11:31:45;;;;;;;0.68;0.68;;;23.60;96.70;;;;;;5071175;28;20163;-73
2021/09/08 11:34:46;;;;;;;0.63;0.63;;;23.60;96.60;;;;;;5090194;28;20162;-73
2021/09/08 11:37:16;;;;;;;2.03;1.92;;;23.90;96.70;;;;;;5086788;28;20187;-73
2021/09/08 11:39:42;;;;;;;1.88;0.52;;;23.90;97.80;;;;;;5072418;28;20199;-74
2021/09/08 11:42:10;;;;;;;3.10;1.20;;;24.90;95.00;;;;;;5071597;28;20199;-73
2021/09/08 11:44:36;;;;;;;0.95;0.28;;;26.20;94.60;;;;;;5087361;28;20202;-73
2021/09/08 11:47:17;;;;;;;0.20;0.20;;;27.60;92.60;;;;;;5084428;28;20195;-74
2021/09/08 11:49:44;;;;;;;1.50;0.77;;;29.00;91.10;;;;;;5073353;28;20233;-73
2021/09/08 11:52:16;;;;;;;0.73;0.73;;;28.20;93.80;;;;;;5092478;28;20524;-73
2021/09/08 11:54:47;;;;;;;3.75;1.17;;;28.40;92.10;;;;;;5110480;28;20206;-73
2021/09/08 11:57:14;;;;;;;1.70;0.47;;;27.30;92.40;;;;;;5109688;28;20186;-73
2021/09/08 11:59:41;;;;;;;0.38;0.38;;;26.10;93.10;;;;;;5107439;28;20197;-75
2021/09/08 12:02:07;;;;;;;1.60;0.55;;;25.70;94.70;;;;;;5101139;28;20304;-75
2021/09/08 12:04:33;;;;;;;0.45;0.45;;;25.80;93.70;;;;;;5097308;28;20332;-75
2021/09/08 12:07:03;;;;;;;1.45;0.50;;;24.40;94.90;;;;;;5114641;28;20186;-75
2021/09/08 12:09:34;;;;;;;1.13;0.98;;;23.60;96.70;;;;;;5106607;28;20202;-75
2021/09/08 12:12:16;;;;;;;1.65;1.35;;;25.20;94.10;;;;;;5110378;28;21053;-73
2021/09/08 12:14:44;;;;;;;0.63;0.63;;;26.30;92.70;;;;;;5107492;28;20248;-73
2021/09/08 12:17:13;;;;;;;0.20;0.20;;;25.70;93.20;;;;;;5085662;28;20263;-73
2021/09/08 12:19:45;;;;;;;0.85;0.20;;;24.60;95.50;;;;;;5088182;28;20170;-73
2021/09/08 12:22:13;;;;;;;1.00;0.70;;;24.10;96.50;;;;;;5114006;28;20255;-72
2021/09/08 12:24:53;;;;;;;0.95;0.88;;;23.80;96.90;;;;;;5108448;28;20205;-69
2021/09/08 12:27:52;;;;;;;1.75;0.70;;;23.90;97.30;;;;;;5108727;28;20190;-71
2021/09/08 12:30:18;;;;;;;0.40;0.40;;;23.80;95.40;;;;;;5098072;28;20268;-74
2021/09/08 12:32:46;;;;;;;0.88;0.70;;;23.20;96.60;;;;;;5111597;28;20170;-74
2021/09/08 12:35:31;;;;;;;0.30;0.30;;;23.00;97.30;;;;;;5093816;28;20210;-74
2021/09/08 12:37:58;;;;;;;1.30;0.52;;;23.10;96.30;;;;;;5091919;28;20181;-74
2021/09/08 12:40:24;;;;;;;0.57;0.57;;;23.20;97.30;;;;;;5110722;28;20202;-74
2021/09/08 12:42:50;;;;;;;0.52;0.50;;;23.10;96.90;;;;;;5110992;28;20179;-74
2021/09/08 12:45:16;;;;;;;0.82;0.82;;;23.20;97.20;;;;;;5111496;28;20230;-73
2021/09/08 12:47:58;;;;;;;1.13;1.02;;;23.40;96.80;;;;;;5089675;28;20227;-74